CYTZ/YTZ METAR and TAF weather

Enter ICAO airport designator
Station Type Date Time Source
CYTZ METAR 2019/06/25 05:45 UTC NOAA

CYTZ 250545Z AUTO 00000KT 1 1/2SM -RA BR BKN005 BKN018 OVC022 17/16 A2963 RMK SLP036 DENSITY ALT 800FT


Station Type Date Time Source
CYTZ Decoded METAR 2019/06/25 05:45 UTC NOAA

Toronto Island Airport Automated Reporting Station, Canada (CYTZ) 43-38N 079-24W
Jun 25, 2019 - 01:45 AM EDT / 2019.06.25 0545 UTC
Wind: Calm:0
Visibility: 1 1/2 mile(s):0
Sky conditions: overcast
Weather: light rain; mist
Temperature: 62 F (17 C)
Dew Point: 60 F (16 C)
Relative Humidity: 93%
Pressure (altimeter): 29.63 in. Hg (1003 hPa)
ob: CYTZ 250545Z AUTO 00000KT 1 1/2SM -RA BR BKN005 BKN018 OVC022 17/16 A2963 RMK SLP036 DENSITY ALT 800FT
cycle: 6

Station Type Date Time Source
CYTZ TAF 2019/06/25 05:45 UTC NOAA

TAF
AMD TAF
AMD CYTZ 250542Z 2505/2602 VRB03KT P6SM -SHRA OVC030
TEMPO 2505/2507 11/2SM SHRA BR BKN005 OVC030
FM250700 20006KT P6SM BKN025 BKN050
TEMPO 2507/2511 OVC020
FM251100 24010KT P6SM BKN015
BECMG 2513/2515 24012G22KT
FM251700 25012G25KT P6SM BKN030
FM260100 25008KT P6SM FEW040
RMK FCST BASED ON AUTO OBS. NXT FCST BY 250800Z

Example: see airport list